createdAt,value
2023-05-04T00:00:53.190Z,11.04
2023-05-04T00:03:22.134Z,10.62
2023-05-04T00:05:51.372Z,10.83
2023-05-04T00:08:22.118Z,10.92
2023-05-04T00:10:51.596Z,10.80
2023-05-04T00:13:24.419Z,11.17
2023-05-04T00:15:56.380Z,10.73
2023-05-04T00:18:25.401Z,11.01
2023-05-04T00:20:57.210Z,10.64
2023-05-04T00:23:26.192Z,10.73
2023-05-04T00:25:55.709Z,10.74
2023-05-04T00:28:25.618Z,10.53
2023-05-04T00:30:57.611Z,10.61
2023-05-04T00:33:29.926Z,10.85
2023-05-04T00:36:04.457Z,10.39
2023-05-04T00:38:35.433Z,10.83
2023-05-04T00:41:04.409Z,10.47
2023-05-04T00:43:33.559Z,10.43
2023-05-04T00:46:09.504Z,10.15
2023-05-04T00:48:40.525Z,10.27
2023-05-04T00:51:16.061Z,10.39
2023-05-04T00:53:45.558Z,10.74
2023-05-04T00:56:17.247Z,10.13
2023-05-04T00:58:47.777Z,10.25
2023-05-04T01:01:17.991Z,10.41
2023-05-04T01:03:47.769Z,10.47
2023-05-04T01:06:27.112Z,10.50
2023-05-04T01:09:08.386Z,10.55
2023-05-04T01:11:51.407Z,10.39
2023-05-04T01:14:22.951Z,10.38
2023-05-04T01:16:56.875Z,10.53
2023-05-04T01:19:29.870Z,10.43
2023-05-04T01:22:00.677Z,10.42
2023-05-04T01:24:32.406Z,10.36
2023-05-04T01:27:12.458Z,10.33
2023-05-04T01:29:52.643Z,10.23
2023-05-04T01:32:23.821Z,10.34
2023-05-04T01:34:57.565Z,10.34
2023-05-04T01:37:33.824Z,10.38
2023-05-04T01:40:05.502Z,10.18
2023-05-04T01:42:40.226Z,10.48
2023-05-04T01:45:12.239Z,10.30
2023-05-04T01:47:43.328Z,10.20
2023-05-04T01:50:13.534Z,10.39
2023-05-04T01:52:44.329Z,10.00
2023-05-04T01:55:13.656Z,10.00
2023-05-04T01:57:43.917Z,10.47
2023-05-04T02:00:18.308Z,9.71
2023-05-04T02:02:47.683Z,10.05
2023-05-04T02:05:18.284Z,10.02
2023-05-04T02:07:49.414Z,9.95
2023-05-04T02:10:18.226Z,9.83
2023-05-04T02:12:47.310Z,10.05
2023-05-04T02:15:17.193Z,9.90
2023-05-04T02:17:46.856Z,9.90
2023-05-04T02:20:17.105Z,9.84
2023-05-04T02:22:51.985Z,9.80
2023-05-04T02:25:22.118Z,9.56
2023-05-04T02:27:51.895Z,9.95
2023-05-04T02:30:31.228Z,9.78
2023-05-04T02:33:01.023Z,9.89
2023-05-04T02:35:30.059Z,9.84
2023-05-04T02:38:03.724Z,9.84
2023-05-04T02:40:34.150Z,9.59
2023-05-04T02:43:02.749Z,9.71
2023-05-04T02:45:33.020Z,9.80
2023-05-04T02:48:06.144Z,9.75
2023-05-04T02:50:36.334Z,9.72
2023-05-04T02:53:09.285Z,9.45
2023-05-04T02:55:38.946Z,9.44
2023-05-04T02:58:11.377Z,9.37
2023-05-04T03:00:41.579Z,9.58
2023-05-04T03:03:12.051Z,9.54
2023-05-04T03:05:41.348Z,9.26
2023-05-04T03:08:13.412Z,9.45
2023-05-04T03:10:45.577Z,9.49
2023-05-04T03:13:16.710Z,9.42
2023-05-04T03:15:47.242Z,9.16
2023-05-04T03:18:15.751Z,9.56
2023-05-04T03:20:47.279Z,9.14
2023-05-04T03:23:19.002Z,9.47
2023-05-04T03:25:48.720Z,9.53
2023-05-04T03:28:21.699Z,9.37
2023-05-04T03:30:51.249Z,9.54
2023-05-04T03:33:23.029Z,9.39
2023-05-04T03:35:53.086Z,9.44
2023-05-04T03:38:25.357Z,9.29
2023-05-04T03:40:55.065Z,9.47
2023-05-04T03:43:23.649Z,9.53
2023-05-04T03:46:01.828Z,9.61
2023-05-04T03:48:31.902Z,9.45
2023-05-04T03:51:04.549Z,9.35
2023-05-04T03:53:38.201Z,9.57
2023-05-04T03:56:08.488Z,9.43
2023-05-04T03:58:37.915Z,9.44
2023-05-04T04:01:11.816Z,9.38
2023-05-04T04:03:41.704Z,9.31
2023-05-04T04:06:18.053Z,9.79
2023-05-04T04:08:50.890Z,9.48
2023-05-04T04:11:22.623Z,9.63
2023-05-04T04:13:52.659Z,9.21
2023-05-04T04:16:23.826Z,9.33
2023-05-04T04:18:54.191Z,9.29
2023-05-04T04:21:26.104Z,9.43
2023-05-04T04:23:58.875Z,9.43
2023-05-04T04:26:29.706Z,9.57
2023-05-04T04:29:08.600Z,9.39
2023-05-04T04:31:38.456Z,9.45
2023-05-04T04:34:08.659Z,9.30
2023-05-04T04:36:45.439Z,9.45
2023-05-04T04:39:18.959Z,9.19
2023-05-04T04:44:34.362Z,9.42
2023-05-04T04:47:03.949Z,9.48
2023-05-04T04:49:33.416Z,9.56
2023-05-04T04:52:12.219Z,9.50
2023-05-04T04:54:49.472Z,9.32
2023-05-04T04:57:20.463Z,9.09
2023-05-04T04:59:50.250Z,9.70
2023-05-04T05:02:39.995Z,9.48
2023-05-04T05:05:12.203Z,9.65
2023-05-04T05:07:42.511Z,9.88
2023-05-04T05:10:13.704Z,9.53
2023-05-04T05:12:44.890Z,9.46
2023-05-04T05:15:15.203Z,9.69
2023-05-04T05:17:50.228Z,9.84
2023-05-04T05:20:23.009Z,9.31
2023-05-04T05:22:52.413Z,10.18
2023-05-04T05:25:26.104Z,10.07
2023-05-04T05:27:55.313Z,10.10
2023-05-04T05:30:29.196Z,10.21
2023-05-04T05:32:58.356Z,10.14
2023-05-04T05:35:29.128Z,10.51
2023-05-04T05:37:58.076Z,10.21
2023-05-04T05:40:32.445Z,10.34
2023-05-04T05:43:04.476Z,10.02
2023-05-04T05:45:36.946Z,10.43
2023-05-04T05:48:08.041Z,10.31
2023-05-04T05:50:44.305Z,10.46
2023-05-04T05:53:14.605Z,10.69
2023-05-04T05:55:47.663Z,10.76
2023-05-04T05:58:19.891Z,10.55
2023-05-04T06:00:52.309Z,10.76
2023-05-04T06:03:23.590Z,10.75
2023-05-04T06:05:53.394Z,11.03
2023-05-04T06:08:25.116Z,10.85
2023-05-04T06:10:58.479Z,11.42
2023-05-04T06:13:30.512Z,11.05
2023-05-04T06:16:00.931Z,11.27
2023-05-04T06:18:31.435Z,11.41
2023-05-04T06:21:03.801Z,11.78
2023-05-04T06:23:33.762Z,12.15
2023-05-04T06:26:07.971Z,11.73
2023-05-04T06:28:38.010Z,11.58
2023-05-04T06:31:15.990Z,12.06
2023-05-04T06:33:46.422Z,11.97
2023-05-04T06:36:16.888Z,12.16
2023-05-04T06:38:56.796Z,11.61
2023-05-04T06:41:32.511Z,12.03
2023-05-04T06:44:04.146Z,12.07
2023-05-04T06:46:39.777Z,12.30
2023-05-04T06:49:11.317Z,12.07
2023-05-04T06:51:42.015Z,12.76
2023-05-04T06:54:12.775Z,12.14
2023-05-04T06:56:44.604Z,12.86
2023-05-04T06:59:16.887Z,12.81
2023-05-04T07:01:47.421Z,12.77
2023-05-04T07:04:17.862Z,12.78
2023-05-04T07:06:48.496Z,12.83
2023-05-04T07:09:19.052Z,13.48
2023-05-04T07:11:51.034Z,13.67
2023-05-04T07:14:23.817Z,13.64
2023-05-04T07:16:57.125Z,13.85
2023-05-04T07:19:28.242Z,13.53
2023-05-04T07:21:58.834Z,13.87
2023-05-04T07:24:40.464Z,13.85
2023-05-04T07:27:12.054Z,13.42
2023-05-04T07:29:51.843Z,13.72
2023-05-04T07:32:33.365Z,13.83
2023-05-04T07:35:05.116Z,14.75
2023-05-04T07:37:34.694Z,14.88
2023-05-04T07:40:07.761Z,15.40
2023-05-04T07:42:41.519Z,14.90
2023-05-04T07:45:13.162Z,15.33
2023-05-04T07:47:43.584Z,15.45
2023-05-04T07:50:14.137Z,15.73
2023-05-04T07:52:45.694Z,15.74
2023-05-04T07:55:19.565Z,15.65
2023-05-04T07:57:55.556Z,15.85
2023-05-04T08:00:30.157Z,16.20
2023-05-04T08:03:04.812Z,16.38
2023-05-04T08:05:33.780Z,15.97
2023-05-04T08:08:04.696Z,16.62
2023-05-04T08:10:38.103Z,17.12
2023-05-04T08:13:18.111Z,16.80
2023-05-04T08:15:48.893Z,17.53
2023-05-04T08:18:20.285Z,17.31
2023-05-04T08:20:53.257Z,16.59
2023-05-04T08:23:23.644Z,16.46
2023-05-04T08:25:56.267Z,17.03
2023-05-04T08:28:31.271Z,17.12
2023-05-04T08:31:01.558Z,17.00
2023-05-04T08:33:33.860Z,17.31
2023-05-04T08:36:05.053Z,18.16
2023-05-04T08:38:37.086Z,17.73
2023-05-04T08:41:09.648Z,18.22
2023-05-04T08:43:40.723Z,18.77
2023-05-04T08:46:12.032Z,18.68
2023-05-04T08:48:43.027Z,18.71
2023-05-04T08:51:13.536Z,19.07
2023-05-04T08:53:47.989Z,18.94
2023-05-04T08:56:18.920Z,18.83
2023-05-04T08:58:52.718Z,18.98
2023-05-04T09:01:24.110Z,19.31
2023-05-04T09:03:56.840Z,19.27
2023-05-04T09:06:26.937Z,19.04
2023-05-04T09:08:56.021Z,19.86
2023-05-04T09:11:25.832Z,18.93
2023-05-04T09:13:56.240Z,19.23
2023-05-04T09:16:35.678Z,19.87
2023-05-04T09:19:06.845Z,19.45
2023-05-04T09:21:36.382Z,19.94
2023-05-04T09:24:13.543Z,19.41
2023-05-04T09:26:42.445Z,19.94
2023-05-04T09:29:19.468Z,19.90
2023-05-04T09:31:52.551Z,20.25
2023-05-04T09:34:23.018Z,19.63
2023-05-04T09:37:00.737Z,19.46
2023-05-04T09:39:31.968Z,20.34
2023-05-04T09:42:03.349Z,20.16
2023-05-04T09:44:37.530Z,20.00
2023-05-04T09:47:07.491Z,20.70
2023-05-04T09:49:39.230Z,20.66
2023-05-04T09:52:09.770Z,20.88
2023-05-04T09:54:42.082Z,20.50
2023-05-04T09:57:14.276Z,20.86
2023-05-04T09:59:45.725Z,21.29
2023-05-04T10:02:22.810Z,20.96
2023-05-04T10:04:53.299Z,21.23
2023-05-04T10:07:25.012Z,21.80
2023-05-04T10:09:54.986Z,21.99
2023-05-04T10:12:30.202Z,21.59
2023-05-04T10:15:00.430Z,21.27
2023-05-04T10:17:48.383Z,21.59
2023-05-04T10:20:46.404Z,21.31
2023-05-04T10:23:47.841Z,21.06
2023-05-04T10:26:59.765Z,22.32
2023-05-04T10:29:33.290Z,22.78
2023-05-04T10:32:09.618Z,21.99
2023-05-04T10:34:39.068Z,22.45
2023-05-04T10:37:19.432Z,22.54
2023-05-04T10:39:56.145Z,22.48
2023-05-04T10:42:24.780Z,23.18
2023-05-04T10:44:56.643Z,22.83
2023-05-04T10:47:35.463Z,23.53
2023-05-04T10:50:08.527Z,23.43
2023-05-04T10:52:48.942Z,23.61
2023-05-04T10:55:20.736Z,23.77
2023-05-04T10:57:54.112Z,22.97
2023-05-04T11:00:26.505Z,23.73
2023-05-04T11:03:06.505Z,23.67
2023-05-04T11:05:46.271Z,23.80
2023-05-04T11:08:21.898Z,23.92
2023-05-04T11:11:06.983Z,23.38
2023-05-04T11:13:46.476Z,24.11
2023-05-04T11:16:25.204Z,23.74
2023-05-04T11:19:08.991Z,24.06
2023-05-04T11:21:41.664Z,24.07
2023-05-04T11:24:16.047Z,24.12
2023-05-04T11:26:50.172Z,24.42
2023-05-04T11:29:20.823Z,24.91
2023-05-04T11:31:56.919Z,25.19
2023-05-04T11:34:28.105Z,24.66
2023-05-04T11:37:05.103Z,25.45
2023-05-04T11:39:38.458Z,24.89
2023-05-04T11:42:11.995Z,24.47
2023-05-04T11:44:43.576Z,25.33
2023-05-04T11:47:16.885Z,24.83
2023-05-04T11:49:49.005Z,25.47
2023-05-04T11:52:26.947Z,26.21
2023-05-04T11:54:59.420Z,25.98
2023-05-04T11:57:28.419Z,25.34
2023-05-04T12:00:00.745Z,25.97
2023-05-04T12:02:30.816Z,25.99
2023-05-04T12:05:03.211Z,26.40
2023-05-04T12:07:37.452Z,26.49
2023-05-04T12:10:09.640Z,25.85
2023-05-04T12:12:42.965Z,27.03
2023-05-04T12:15:12.373Z,26.98
2023-05-04T12:17:55.582Z,26.30
2023-05-04T12:20:29.588Z,26.98
2023-05-04T12:23:08.699Z,26.95
2023-05-04T12:25:50.982Z,26.06
2023-05-04T12:28:27.818Z,26.95
2023-05-04T12:31:01.610Z,28.18
2023-05-04T12:33:32.105Z,27.99
2023-05-04T12:36:04.400Z,27.49
2023-05-04T12:38:36.014Z,28.09
2023-05-04T12:41:09.967Z,27.20
2023-05-04T12:43:42.650Z,27.64
2023-05-04T12:46:13.353Z,27.53
2023-05-04T12:48:43.545Z,28.38
2023-05-04T12:51:15.884Z,27.80
2023-05-04T12:53:45.680Z,27.62
2023-05-04T12:56:16.658Z,28.10
2023-05-04T12:58:49.481Z,27.42
2023-05-04T13:01:18.770Z,27.85
2023-05-04T13:03:49.854Z,28.58
2023-05-04T13:06:21.123Z,27.89
2023-05-04T13:08:55.726Z,26.57
2023-05-04T13:11:25.150Z,26.67
2023-05-04T13:14:02.726Z,27.40
2023-05-04T13:16:33.908Z,27.18
2023-05-04T13:19:03.296Z,28.12
2023-05-04T13:21:34.783Z,28.14
2023-05-04T13:24:03.808Z,28.33
2023-05-04T13:26:34.285Z,28.80
2023-05-04T13:29:06.882Z,28.53
2023-05-04T13:31:36.604Z,28.75
2023-05-04T13:34:09.153Z,28.70
2023-05-04T13:36:39.769Z,28.77
2023-05-04T13:39:12.745Z,29.70
2023-05-04T13:41:43.635Z,29.82
2023-05-04T13:44:15.785Z,29.05
2023-05-04T13:46:46.119Z,29.24
2023-05-04T13:49:17.629Z,29.06
2023-05-04T13:51:53.200Z,29.61
2023-05-04T13:54:22.486Z,30.57
2023-05-04T13:56:54.546Z,30.16
2023-05-04T13:59:24.453Z,29.00
2023-05-04T14:01:59.461Z,29.06
2023-05-04T14:04:31.347Z,30.19
2023-05-04T14:07:04.585Z,29.88
2023-05-04T14:09:36.741Z,30.41
2023-05-04T14:12:07.031Z,30.04
2023-05-04T14:14:38.640Z,31.44
2023-05-04T14:17:13.139Z,29.31
2023-05-04T14:19:49.495Z,31.11
2023-05-04T14:22:20.526Z,30.33
2023-05-04T14:24:51.560Z,31.01
2023-05-04T14:27:23.917Z,31.45
2023-05-04T14:29:56.509Z,30.60
2023-05-04T14:32:26.846Z,32.20
2023-05-04T14:35:08.259Z,31.03
2023-05-04T14:37:42.647Z,30.34
2023-05-04T14:40:22.652Z,31.82
2023-05-04T14:42:51.582Z,29.67
2023-05-04T14:45:20.972Z,30.05
2023-05-04T14:47:50.925Z,31.90
2023-05-04T14:50:20.128Z,30.55
2023-05-04T14:52:50.853Z,32.16
2023-05-04T14:55:19.500Z,31.32
2023-05-04T14:57:48.687Z,32.10
2023-05-04T15:00:21.648Z,30.51
2023-05-04T15:02:50.841Z,30.07
2023-05-04T15:05:20.976Z,32.16
2023-05-04T15:07:51.624Z,32.07
2023-05-04T15:10:21.455Z,31.21
2023-05-04T15:12:53.076Z,32.73
2023-05-04T15:15:24.707Z,30.75
2023-05-04T15:17:54.079Z,29.89
2023-05-04T15:20:28.657Z,31.74
2023-05-04T15:23:01.755Z,31.87
2023-05-04T15:25:34.451Z,31.65
2023-05-04T15:28:04.397Z,29.42
2023-05-04T15:30:34.390Z,31.18
2023-05-04T15:33:10.710Z,30.50
2023-05-04T15:35:46.280Z,28.89
2023-05-04T15:38:16.708Z,29.39
2023-05-04T15:40:47.215Z,30.24
2023-05-04T15:43:18.485Z,29.05
2023-05-04T15:45:53.727Z,29.75
2023-05-04T15:48:24.249Z,28.54
2023-05-04T15:50:53.924Z,29.13
2023-05-04T15:53:24.458Z,28.48
2023-05-04T15:55:54.824Z,29.49
2023-05-04T15:58:23.389Z,27.99
2023-05-04T16:00:59.244Z,28.81
2023-05-04T16:03:31.444Z,29.66
2023-05-04T16:06:05.728Z,27.71
2023-05-04T16:08:41.936Z,28.22
2023-05-04T16:11:13.443Z,27.55
2023-05-04T16:13:42.653Z,27.63
2023-05-04T16:16:13.828Z,27.86
2023-05-04T16:18:44.218Z,27.78
2023-05-04T16:21:15.370Z,29.20
2023-05-04T16:23:50.449Z,28.79
2023-05-04T16:26:24.775Z,29.46
2023-05-04T16:29:00.226Z,29.32
2023-05-04T16:31:31.258Z,29.56
2023-05-04T16:34:07.102Z,28.35
2023-05-04T16:36:45.213Z,29.92
2023-05-04T16:39:22.327Z,29.50
2023-05-04T16:42:05.122Z,29.02
2023-05-04T16:44:34.517Z,28.97
2023-05-04T16:47:03.104Z,28.69
2023-05-04T16:49:33.982Z,27.71
2023-05-04T16:52:03.118Z,28.57
2023-05-04T16:54:34.516Z,27.32
2023-05-04T16:57:04.419Z,27.03
2023-05-04T16:59:33.939Z,27.72
2023-05-04T17:02:03.611Z,27.24
2023-05-04T17:04:36.362Z,27.25
2023-05-04T17:07:10.776Z,27.17
2023-05-04T17:09:46.398Z,27.10
2023-05-04T17:12:16.202Z,26.95
2023-05-04T17:14:46.952Z,26.72
2023-05-04T17:17:18.848Z,26.70
2023-05-04T17:19:52.979Z,26.79
2023-05-04T17:22:23.137Z,26.08
2023-05-04T17:24:56.652Z,26.69
2023-05-04T17:27:25.273Z,25.50
2023-05-04T17:29:53.863Z,26.45
2023-05-04T17:32:23.974Z,26.32
2023-05-04T17:34:53.599Z,25.90
2023-05-04T17:37:30.673Z,24.73
2023-05-04T17:40:06.636Z,24.40
2023-05-04T17:42:36.085Z,25.11
2023-05-04T17:45:05.143Z,25.09
2023-05-04T17:47:41.521Z,25.43
2023-05-04T17:50:11.816Z,25.46
2023-05-04T17:52:46.240Z,25.47
2023-05-04T17:55:17.008Z,25.04
2023-05-04T17:57:49.242Z,24.62
2023-05-04T18:00:25.717Z,24.31
2023-05-04T18:02:55.056Z,24.32
2023-05-04T18:05:25.254Z,24.09
2023-05-04T18:07:55.133Z,24.33
2023-05-04T18:10:27.203Z,23.97
2023-05-04T18:13:00.470Z,23.84
2023-05-04T18:15:33.108Z,23.69
2023-05-04T18:18:02.536Z,23.93
2023-05-04T18:20:34.842Z,23.76
2023-05-04T18:23:04.266Z,23.72
2023-05-04T18:25:47.627Z,23.02
2023-05-04T18:28:23.070Z,23.41
2023-05-04T18:30:57.153Z,22.85
2023-05-04T18:33:26.145Z,22.96
2023-05-04T18:35:54.957Z,23.43
2023-05-04T18:38:28.215Z,22.99
2023-05-04T18:41:00.211Z,22.66
2023-05-04T18:43:31.085Z,23.04
2023-05-04T18:46:02.805Z,22.64
2023-05-04T18:48:32.279Z,22.76
2023-05-04T18:51:02.844Z,22.38
2023-05-04T18:53:33.569Z,22.72
2023-05-04T18:56:05.569Z,22.37
2023-05-04T18:58:34.590Z,22.35
2023-05-04T19:01:07.586Z,22.40
2023-05-04T19:03:37.133Z,22.11
2023-05-04T19:06:08.017Z,22.03
2023-05-04T19:08:37.279Z,22.25
2023-05-04T19:11:11.030Z,22.43
2023-05-04T19:13:41.646Z,21.92
2023-05-04T19:16:17.378Z,22.01
2023-05-04T19:18:47.352Z,21.96
2023-05-04T19:21:17.744Z,21.84
2023-05-04T19:23:47.322Z,21.49
2023-05-04T19:26:20.916Z,21.41
2023-05-04T19:28:50.195Z,21.58
2023-05-04T19:31:19.619Z,21.49
2023-05-04T19:33:52.399Z,21.61
2023-05-04T19:36:21.194Z,21.51
2023-05-04T19:38:50.247Z,21.25
2023-05-04T19:41:21.186Z,21.06
2023-05-04T19:43:52.376Z,21.04
2023-05-04T19:46:28.387Z,20.55
2023-05-04T19:48:59.672Z,20.61
2023-05-04T19:51:31.441Z,21.08
2023-05-04T19:54:09.238Z,20.76
2023-05-04T19:56:55.578Z,20.52
2023-05-04T19:59:27.840Z,20.48
2023-05-04T20:02:12.243Z,20.62
2023-05-04T20:04:46.972Z,20.75
2023-05-04T20:07:22.401Z,20.02
2023-05-04T20:09:52.751Z,20.62
2023-05-04T20:12:23.863Z,20.21
2023-05-04T20:14:55.166Z,20.05
2023-05-04T20:17:24.745Z,20.14
2023-05-04T20:19:57.007Z,20.59
2023-05-04T20:22:30.528Z,20.56
2023-05-04T20:25:00.852Z,20.56
2023-05-04T20:27:30.846Z,20.47
2023-05-04T20:30:01.674Z,19.98
2023-05-04T20:32:32.043Z,20.18
2023-05-04T20:35:02.471Z,19.78
2023-05-04T20:37:32.702Z,20.04
2023-05-04T20:40:05.104Z,19.87
2023-05-04T20:42:36.962Z,19.81
2023-05-04T20:45:07.672Z,19.41
2023-05-04T20:47:37.031Z,19.37
2023-05-04T20:50:06.439Z,19.29
2023-05-04T20:52:36.785Z,19.26
2023-05-04T20:55:08.294Z,18.92
2023-05-04T20:57:39.683Z,19.41
2023-05-04T21:00:12.848Z,19.30
2023-05-04T21:02:44.197Z,18.96
2023-05-04T21:05:16.535Z,19.17
2023-05-04T21:07:47.680Z,18.97
2023-05-04T21:10:17.093Z,18.56
2023-05-04T21:12:48.317Z,18.81
2023-05-04T21:15:17.872Z,18.97
2023-05-04T21:17:49.742Z,18.67
2023-05-04T21:20:20.728Z,19.05
2023-05-04T21:22:51.042Z,19.00
2023-05-04T21:25:20.967Z,19.01
2023-05-04T21:27:53.733Z,19.00
2023-05-04T21:30:23.684Z,19.00
2023-05-04T21:33:06.478Z,19.01
2023-05-04T21:35:36.909Z,18.88
2023-05-04T21:38:07.879Z,18.86
2023-05-04T21:40:40.746Z,18.77
2023-05-04T21:43:10.791Z,18.67
2023-05-04T21:45:39.521Z,18.86
2023-05-04T21:48:08.327Z,18.80
2023-05-04T21:50:37.219Z,19.00
2023-05-04T21:53:07.643Z,19.19
2023-05-04T21:55:36.837Z,19.17
2023-05-04T21:58:09.022Z,18.99
2023-05-04T22:00:40.208Z,18.81
2023-05-04T22:03:11.689Z,18.70
2023-05-04T22:05:43.057Z,18.90
2023-05-04T22:08:11.984Z,18.84
2023-05-04T22:10:41.430Z,18.83
2023-05-04T22:13:10.945Z,18.91
2023-05-04T22:15:49.987Z,18.78
2023-05-04T22:18:19.868Z,18.57
2023-05-04T22:20:53.024Z,18.62
2023-05-04T22:23:24.746Z,18.50
2023-05-04T22:25:53.239Z,18.48
2023-05-04T22:28:22.247Z,18.59
2023-05-04T22:30:52.508Z,18.40
2023-05-04T22:33:21.019Z,18.52
2023-05-04T22:35:49.998Z,18.43
2023-05-04T22:38:19.813Z,18.35
2023-05-04T22:40:50.933Z,18.41
2023-05-04T22:43:22.580Z,18.32
2023-05-04T22:45:55.139Z,18.16
2023-05-04T22:48:24.684Z,18.34
2023-05-04T22:50:57.550Z,18.40
2023-05-04T22:53:32.883Z,18.10
2023-05-04T22:56:02.050Z,17.86
2023-05-04T22:58:32.969Z,18.01
2023-05-04T23:01:03.157Z,17.59
2023-05-04T23:03:32.105Z,17.83
2023-05-04T23:06:01.354Z,17.74
2023-05-04T23:08:31.048Z,17.81
2023-05-04T23:11:00.031Z,17.77
2023-05-04T23:13:28.448Z,18.07
2023-05-04T23:15:57.757Z,18.40
2023-05-04T23:18:28.642Z,18.13
2023-05-04T23:20:58.690Z,18.29
2023-05-04T23:23:27.756Z,18.15
2023-05-04T23:25:56.253Z,18.25
2023-05-04T23:28:24.911Z,18.29
2023-05-04T23:30:55.719Z,18.26
2023-05-04T23:33:27.711Z,18.16
2023-05-04T23:35:57.419Z,17.66
2023-05-04T23:38:27.275Z,17.81
2023-05-04T23:40:57.802Z,17.92
2023-05-04T23:43:27.709Z,17.96
2023-05-04T23:46:02.085Z,18.13
2023-05-04T23:48:34.586Z,18.13
2023-05-04T23:51:05.112Z,17.97
2023-05-04T23:53:35.535Z,18.11
2023-05-04T23:56:07.664Z,18.20
2023-05-04T23:58:37.263Z,18.15
